Russellville, AR

7:29 AM CST on November 23, 2014 (GMT -0600)
Amateur Radio Station WB5JJJ | Change Station
CLOSE
Current Station
Personal Weather Station
Location: Russellville, AR
Elevation: 377 ft
Nearby Weather Stations

Elev 377 ft 35.28 °N, 93.15 °W | Updated 17 seconds ago

Rain
Rain Mist
56.0 °F
Feels Like 56.0 °F
N
3.0
Wind Variable Wind from SE
Gusts 6.0 mph

Today
High -- | Low -- °F
--% Chance of Precip.
Yesterday
High -- | Low -- °F
Precip. -- in
6:55 AM 5:02 PM
New Moon, 1% visible
Pressure 29.61 in
Visibility 4.0 miles
Clouds Scattered Clouds 900 ft
Overcast 1600 ft
Dew Point 56 °F
Humidity 100%
Rainfall 0.15 in
Snow Depth Not available.
UV 0 out of 12
Pollen .50 out of 12
Air Quality Not available.
Flu Activity Not available.
SPECI KRUE 231305Z AUTO VRB05KT 4SM RA BR SCT009 OVC016 14/13 A2961 RMK AO2 P0000 T01390133 $

More Conditions Fewer Conditions

Pressure 29.61 in
Visibility 4.0 miles
Clouds Scattered Clouds 900 ft
Overcast 1600 ft
Dew Point 56 °F
Humidity 100%
Rainfall 0.15 in
Snow Depth Not available.
UV 0 out of 12
Pollen .50 out of 12
Air Quality Not available.
Flu Activity Not available.
SPECI KRUE 231305Z AUTO VRB05KT 4SM RA BR SCT009 OVC016 14/13 A2961 RMK AO2 P0000 T01390133 $

More Conditions Fewer Conditions

10-Day Weather Forecast

Almanac

Astronomy

Nov. 23, 2014 Rise Set
Actual Time
Civil Twilight
Nautical Twilight
Astronomical Twilight
Moon
Length of Visible Light
Length of Day
Tomorrow will be .
, % of the Moon is Illuminated

Today's Extremes

State Highs State Lows

Community

WunderPhotos

Upload Photos

1,773,054 photos uploaded!

WunderBlogs® & News

Nearby

Air Quality

  Air Quality AQ Index Pollutant
Not available.

Snow Depth

Station Depth Elevation

Earthquake Activity

City Distance Mag. Time & Date
Minimum magnitude displayed is 2.5.

Coastal Water Temperatures

Place Temperature

Nearby Weather Stations